sensor_id;sensor_type;location;lat;lon;timestamp;pressure;altitude;pressure_sealevel;temperature;humidity
85000;BME280;75320;51.608;7.952;2024-03-06T00:02:15;101104.81;;;6.13;96.77
85000;BME280;75320;51.608;7.952;2024-03-06T00:04:41;101115.28;;;6.13;96.52
85000;BME280;75320;51.608;7.952;2024-03-06T00:07:06;101112.53;;;6.25;97.36
85000;BME280;75320;51.608;7.952;2024-03-06T00:09:31;101117.91;;;6.33;96.64
85000;BME280;75320;51.608;7.952;2024-03-06T00:11:57;101124.25;;;6.30;96.29
85000;BME280;75320;51.608;7.952;2024-03-06T00:14:23;101139.81;;;6.32;96.45
85000;BME280;75320;51.608;7.952;2024-03-06T00:16:50;101145.72;;;6.34;96.53
85000;BME280;75320;51.608;7.952;2024-03-06T00:19:17;101137.88;;;6.24;97.03
85000;BME280;75320;51.608;7.952;2024-03-06T00:21:42;101145.72;;;6.24;96.63
85000;BME280;75320;51.608;7.952;2024-03-06T00:24:08;101139.97;;;6.21;97.08
85000;BME280;75320;51.608;7.952;2024-03-06T00:26:33;101147.66;;;6.22;97.10
85000;BME280;75320;51.608;7.952;2024-03-06T00:28:59;101144.06;;;6.23;96.86
85000;BME280;75320;51.608;7.952;2024-03-06T00:31:24;101144.34;;;6.20;96.55
85000;BME280;75320;51.608;7.952;2024-03-06T00:33:50;101146.81;;;6.22;97.26
85000;BME280;75320;51.608;7.952;2024-03-06T00:36:15;101150.28;;;6.22;96.79
85000;BME280;75320;51.608;7.952;2024-03-06T00:38:40;101155.09;;;6.17;97.65
85000;BME280;75320;51.608;7.952;2024-03-06T00:41:05;101152.22;;;6.20;96.92
85000;BME280;75320;51.608;7.952;2024-03-06T00:43:31;101157.31;;;6.22;97.19
85000;BME280;75320;51.608;7.952;2024-03-06T00:45:56;101156.22;;;6.24;97.03
85000;BME280;75320;51.608;7.952;2024-03-06T00:48:22;101153.44;;;6.16;96.84
85000;BME280;75320;51.608;7.952;2024-03-06T00:50:47;101159.78;;;6.23;97.55
85000;BME280;75320;51.608;7.952;2024-03-06T00:53:13;101157.84;;;6.25;96.19
85000;BME280;75320;51.608;7.952;2024-03-06T00:55:38;101160.22;;;6.28;96.55
85000;BME280;75320;51.608;7.952;2024-03-06T00:58:05;101148.75;;;6.19;96.83
85000;BME280;75320;51.608;7.952;2024-03-06T01:00:31;101162.13;;;6.26;96.79
85000;BME280;75320;51.608;7.952;2024-03-06T01:02:57;101163.22;;;6.24;97.50
85000;BME280;75320;51.608;7.952;2024-03-06T01:05:22;101167.78;;;6.22;96.79
85000;BME280;75320;51.608;7.952;2024-03-06T01:07:47;101162.25;;;6.15;96.53
85000;BME280;75320;51.608;7.952;2024-03-06T01:10:13;101164.03;;;6.14;97.32
85000;BME280;75320;51.608;7.952;2024-03-06T01:12:38;101154.78;;;6.10;97.44
85000;BME280;75320;51.608;7.952;2024-03-06T01:15:04;101176.16;;;6.15;97.70
85000;BME280;75320;51.608;7.952;2024-03-06T01:17:30;101155.59;;;6.01;97.00
85000;BME280;75320;51.608;7.952;2024-03-06T01:19:56;101179.03;;;6.12;97.11
85000;BME280;75320;51.608;7.952;2024-03-06T01:22:21;101154.50;;;5.94;97.23
85000;BME280;75320;51.608;7.952;2024-03-06T01:24:47;101186.34;;;6.09;97.53
85000;BME280;75320;51.608;7.952;2024-03-06T01:27:16;101196.81;;;6.09;97.07
85000;BME280;75320;51.608;7.952;2024-03-06T01:29:41;101194.16;;;5.99;97.26
85000;BME280;75320;51.608;7.952;2024-03-06T01:32:07;101190.44;;;6.02;97.85
85000;BME280;75320;51.608;7.952;2024-03-06T01:34:32;101181.50;;;6.04;97.71
85000;BME280;75320;51.608;7.952;2024-03-06T01:36:57;101192.03;;;6.14;97.46
85000;BME280;75320;51.608;7.952;2024-03-06T01:39:23;101196.13;;;6.16;96.62
85000;BME280;75320;51.608;7.952;2024-03-06T01:41:49;101192.72;;;6.16;97.33
85000;BME280;75320;51.608;7.952;2024-03-06T01:44:16;101194.09;;;6.20;96.86
85000;BME280;75320;51.608;7.952;2024-03-06T01:46:46;101189.56;;;6.22;96.91
85000;BME280;75320;51.608;7.952;2024-03-06T01:49:12;101192.31;;;6.21;97.11
85000;BME280;75320;51.608;7.952;2024-03-06T01:51:39;101169.41;;;6.13;97.14
85000;BME280;75320;51.608;7.952;2024-03-06T01:54:06;101185.84;;;6.34;96.89
85000;BME280;75320;51.608;7.952;2024-03-06T01:56:33;101184.03;;;6.25;96.88
85000;BME280;75320;51.608;7.952;2024-03-06T01:59:00;101189.97;;;6.27;96.85
85000;BME280;75320;51.608;7.952;2024-03-06T02:01:28;101188.56;;;6.23;97.60
85000;BME280;75320;51.608;7.952;2024-03-06T02:03:53;101187.09;;;6.21;96.44
85000;BME280;75320;51.608;7.952;2024-03-06T02:06:19;101184.31;;;6.22;97.57
85000;BME280;75320;51.608;7.952;2024-03-06T02:08:45;101191.63;;;6.28;97.54
85000;BME280;75320;51.608;7.952;2024-03-06T02:11:11;101192.88;;;6.24;97.04
85000;BME280;75320;51.608;7.952;2024-03-06T02:13:38;101208.88;;;6.31;97.60
85000;BME280;75320;51.608;7.952;2024-03-06T02:16:04;101197.50;;;6.11;97.81
85000;BME280;75320;51.608;7.952;2024-03-06T02:18:29;101211.28;;;6.13;97.65
85000;BME280;75320;51.608;7.952;2024-03-06T02:20:54;101216.66;;;6.11;97.60
85000;BME280;75320;51.608;7.952;2024-03-06T02:23:20;101220.38;;;6.09;97.77
85000;BME280;75320;51.608;7.952;2024-03-06T02:25:48;101219.53;;;6.08;97.43
85000;BME280;75320;51.608;7.952;2024-03-06T02:28:14;101217.63;;;6.10;97.09
85000;BME280;75320;51.608;7.952;2024-03-06T02:30:39;101212.13;;;6.13;97.79
85000;BME280;75320;51.608;7.952;2024-03-06T02:33:05;101222.47;;;6.15;97.67
85000;BME280;75320;51.608;7.952;2024-03-06T02:35:37;101210.34;;;6.14;97.24
85000;BME280;75320;51.608;7.952;2024-03-06T02:38:04;101214.06;;;6.21;97.83
85000;BME280;75320;51.608;7.952;2024-03-06T02:40:32;101211.34;;;6.23;97.51
85000;BME280;75320;51.608;7.952;2024-03-06T02:42:57;101208.53;;;6.14;97.18
85000;BME280;75320;51.608;7.952;2024-03-06T02:45:23;101212.97;;;6.14;98.13
85000;BME280;75320;51.608;7.952;2024-03-06T02:47:49;101211.84;;;6.07;98.06
85000;BME280;75320;51.608;7.952;2024-03-06T02:50:15;101206.75;;;6.05;98.58
85000;BME280;75320;51.608;7.952;2024-03-06T02:52:41;101211.53;;;6.10;98.00
85000;BME280;75320;51.608;7.952;2024-03-06T02:55:06;101205.91;;;6.05;97.90
85000;BME280;75320;51.608;7.952;2024-03-06T02:57:32;101205.75;;;5.97;98.14
85000;BME280;75320;51.608;7.952;2024-03-06T02:59:58;101208.91;;;6.00;97.87
85000;BME280;75320;51.608;7.952;2024-03-06T03:02:23;101213.19;;;6.01;98.34
85000;BME280;75320;51.608;7.952;2024-03-06T03:04:52;101203.41;;;6.03;98.30
85000;BME280;75320;51.608;7.952;2024-03-06T03:07:20;101207.00;;;6.02;98.09
85000;BME280;75320;51.608;7.952;2024-03-06T03:09:46;101200.22;;;6.00;97.62
85000;BME280;75320;51.608;7.952;2024-03-06T03:12:13;101195.97;;;5.99;97.96
85000;BME280;75320;51.608;7.952;2024-03-06T03:14:42;101188.81;;;6.01;97.58
85000;BME280;75320;51.608;7.952;2024-03-06T03:17:08;101202.59;;;6.12;98.12
85000;BME280;75320;51.608;7.952;2024-03-06T03:19:34;101197.06;;;6.06;98.02
85000;BME280;75320;51.608;7.952;2024-03-06T03:21:59;101199.41;;;5.99;97.68
85000;BME280;75320;51.608;7.952;2024-03-06T03:24:25;101187.13;;;5.90;98.15
85000;BME280;75320;51.608;7.952;2024-03-06T03:26:54;101207.94;;;6.01;98.27
85000;BME280;75320;51.608;7.952;2024-03-06T03:29:20;101203.94;;;5.97;98.34
85000;BME280;75320;51.608;7.952;2024-03-06T03:31:46;101201.47;;;5.96;98.01
85000;BME280;75320;51.608;7.952;2024-03-06T03:34:12;101168.13;;;5.68;97.70
85000;BME280;75320;51.608;7.952;2024-03-06T03:36:44;101210.09;;;5.87;98.18
85000;BME280;75320;51.608;7.952;2024-03-06T03:39:12;101203.81;;;5.69;98.15
85000;BME280;75320;51.608;7.952;2024-03-06T03:41:45;101218.31;;;5.82;98.45
85000;BME280;75320;51.608;7.952;2024-03-06T03:44:17;101222.47;;;5.85;98.60
85000;BME280;75320;51.608;7.952;2024-03-06T03:46:45;101227.00;;;5.83;97.76
85000;BME280;75320;51.608;7.952;2024-03-06T03:49:11;101234.16;;;5.81;98.33
85000;BME280;75320;51.608;7.952;2024-03-06T03:51:38;101226.53;;;5.78;98.05
85000;BME280;75320;51.608;7.952;2024-03-06T03:54:04;101235.56;;;5.85;98.36
85000;BME280;75320;51.608;7.952;2024-03-06T03:56:30;101230.84;;;5.79;97.97
85000;BME280;75320;51.608;7.952;2024-03-06T03:58:56;101227.91;;;5.72;97.67
85000;BME280;75320;51.608;7.952;2024-03-06T04:01:25;101234.41;;;5.78;97.73
85000;BME280;75320;51.608;7.952;2024-03-06T04:03:51;101239.25;;;5.82;97.62
85000;BME280;75320;51.608;7.952;2024-03-06T04:06:16;101237.59;;;5.81;97.66
85000;BME280;75320;51.608;7.952;2024-03-06T04:08:42;101241.44;;;5.77;97.32
85000;BME280;75320;51.608;7.952;2024-03-06T04:11:08;101243.22;;;5.77;97.66
85000;BME280;75320;51.608;7.952;2024-03-06T04:13:36;101244.06;;;5.77;97.64
85000;BME280;75320;51.608;7.952;2024-03-06T04:16:02;101255.47;;;5.76;97.57
85000;BME280;75320;51.608;7.952;2024-03-06T04:18:28;101254.25;;;5.80;97.75
85000;BME280;75320;51.608;7.952;2024-03-06T04:20:54;101261.72;;;5.85;98.09
85000;BME280;75320;51.608;7.952;2024-03-06T04:23:19;101256.50;;;5.85;97.44
85000;BME280;75320;51.608;7.952;2024-03-06T04:25:44;101249.50;;;5.65;97.61
85000;BME280;75320;51.608;7.952;2024-03-06T04:28:10;101270.28;;;5.66;98.20
85000;BME280;75320;51.608;7.952;2024-03-06T04:30:35;101262.31;;;5.68;98.53
85000;BME280;75320;51.608;7.952;2024-03-06T04:33:01;101273.78;;;5.76;98.52
85000;BME280;75320;51.608;7.952;2024-03-06T04:35:27;101276.66;;;5.73;98.46
85000;BME280;75320;51.608;7.952;2024-03-06T04:37:53;101277.75;;;5.71;98.36
85000;BME280;75320;51.608;7.952;2024-03-06T04:40:19;101283.41;;;5.76;98.46
85000;BME280;75320;51.608;7.952;2024-03-06T04:42:47;101289.75;;;5.73;98.30
85000;BME280;75320;51.608;7.952;2024-03-06T04:45:16;101288.63;;;5.76;98.04
85000;BME280;75320;51.608;7.952;2024-03-06T04:47:42;101284.63;;;5.72;98.68
85000;BME280;75320;51.608;7.952;2024-03-06T04:50:09;101286.47;;;5.81;98.34
85000;BME280;75320;51.608;7.952;2024-03-06T04:52:36;101297.63;;;5.83;98.75
85000;BME280;75320;51.608;7.952;2024-03-06T04:55:01;101275.25;;;5.69;98.48
85000;BME280;75320;51.608;7.952;2024-03-06T04:57:27;101302.66;;;5.86;98.72
85000;BME280;75320;51.608;7.952;2024-03-06T04:59:53;101307.88;;;5.86;97.85
85000;BME280;75320;51.608;7.952;2024-03-06T05:02:18;101313.94;;;5.86;98.43
85000;BME280;75320;51.608;7.952;2024-03-06T05:04:43;101320.34;;;5.82;98.68
85000;BME280;75320;51.608;7.952;2024-03-06T05:07:09;101320.34;;;5.82;98.57
85000;BME280;75320;51.608;7.952;2024-03-06T05:09:35;101329.31;;;5.80;98.51
85000;BME280;75320;51.608;7.952;2024-03-06T05:12:01;101324.53;;;5.85;98.89
85000;BME280;75320;51.608;7.952;2024-03-06T05:14:26;101334.06;;;5.86;99.09
85000;BME280;75320;51.608;7.952;2024-03-06T05:16:51;101331.34;;;5.76;98.50
85000;BME280;75320;51.608;7.952;2024-03-06T05:19:18;101338.72;;;5.71;99.08
85000;BME280;75320;51.608;7.952;2024-03-06T05:21:43;101332.09;;;5.67;98.32
85000;BME280;75320;51.608;7.952;2024-03-06T05:24:09;101334.84;;;5.66;98.69
85000;BME280;75320;51.608;7.952;2024-03-06T05:26:35;101340.59;;;5.60;98.92
85000;BME280;75320;51.608;7.952;2024-03-06T05:29:00;101335.50;;;5.58;98.67
85000;BME280;75320;51.608;7.952;2024-03-06T05:31:26;101348.44;;;5.60;99.48
85000;BME280;75320;51.608;7.952;2024-03-06T05:33:51;101337.97;;;5.60;98.90
85000;BME280;75320;51.608;7.952;2024-03-06T05:36:19;101345.69;;;5.61;98.47
85000;BME280;75320;51.608;7.952;2024-03-06T05:38:45;101332.66;;;5.50;98.49
85000;BME280;75320;51.608;7.952;2024-03-06T05:41:10;101349.06;;;5.52;98.88
85000;BME280;75320;51.608;7.952;2024-03-06T05:43:36;101346.38;;;5.42;98.86
85000;BME280;75320;51.608;7.952;2024-03-06T05:46:01;101344.72;;;5.41;99.41
85000;BME280;75320;51.608;7.952;2024-03-06T05:48:26;101353.66;;;5.60;99.75
85000;BME280;75320;51.608;7.952;2024-03-06T05:50:53;101362.03;;;5.54;98.91
85000;BME280;75320;51.608;7.952;2024-03-06T05:53:18;101360.22;;;5.54;98.56
85000;BME280;75320;51.608;7.952;2024-03-06T05:55:43;101366.41;;;5.53;98.19
85000;BME280;75320;51.608;7.952;2024-03-06T05:58:09;101359.50;;;5.52;98.19
85000;BME280;75320;51.608;7.952;2024-03-06T06:00:34;101377.63;;;5.44;97.89
85000;BME280;75320;51.608;7.952;2024-03-06T06:03:00;101379.22;;;5.35;98.52
85000;BME280;75320;51.608;7.952;2024-03-06T06:05:25;101378.31;;;5.25;98.54
85000;BME280;75320;51.608;7.952;2024-03-06T06:07:51;101391.09;;;5.28;98.49
85000;BME280;75320;51.608;7.952;2024-03-06T06:10:16;101383.03;;;5.31;99.38
85000;BME280;75320;51.608;7.952;2024-03-06T06:12:42;101383.72;;;5.33;99.30
85000;BME280;75320;51.608;7.952;2024-03-06T06:15:08;101393.59;;;5.41;99.08
85000;BME280;75320;51.608;7.952;2024-03-06T06:17:34;101397.63;;;5.34;97.81
85000;BME280;75320;51.608;7.952;2024-03-06T06:20:00;101395.75;;;5.25;98.77
85000;BME280;75320;51.608;7.952;2024-03-06T06:22:28;101379.03;;;5.16;99.69
85000;BME280;75320;51.608;7.952;2024-03-06T06:24:54;101398.13;;;5.28;99.01
85000;BME280;75320;51.608;7.952;2024-03-06T06:27:21;101394.41;;;5.30;99.37
85000;BME280;75320;51.608;7.952;2024-03-06T06:29:48;101396.78;;;5.44;99.75
85000;BME280;75320;51.608;7.952;2024-03-06T06:32:13;101400.56;;;5.52;99.41
85000;BME280;75320;51.608;7.952;2024-03-06T06:34:38;101406.13;;;5.58;99.18
85000;BME280;75320;51.608;7.952;2024-03-06T06:37:04;101407.59;;;5.72;98.21
85000;BME280;75320;51.608;7.952;2024-03-06T06:39:29;101406.00;;;5.80;98.61
85000;BME280;75320;51.608;7.952;2024-03-06T06:41:54;101408.22;;;5.96;97.85
85000;BME280;75320;51.608;7.952;2024-03-06T06:44:20;101411.66;;;5.96;97.65
85000;BME280;75320;51.608;7.952;2024-03-06T06:46:45;101413.97;;;5.90;97.42
85000;BME280;75320;51.608;7.952;2024-03-06T06:49:10;101427.03;;;6.10;96.27
85000;BME280;75320;51.608;7.952;2024-03-06T06:51:36;101429.34;;;6.25;96.00
85000;BME280;75320;51.608;7.952;2024-03-06T06:54:01;101434.34;;;6.58;94.97
85000;BME280;75320;51.608;7.952;2024-03-06T06:56:27;101422.16;;;6.77;94.91
85000;BME280;75320;51.608;7.952;2024-03-06T06:58:52;101419.44;;;6.88;94.73
85000;BME280;75320;51.608;7.952;2024-03-06T07:01:18;101422.94;;;7.08;95.67
85000;BME280;75320;51.608;7.952;2024-03-06T07:03:44;101431.78;;;7.17;94.91
85000;BME280;75320;51.608;7.952;2024-03-06T07:06:09;101439.13;;;7.32;95.01
85000;BME280;75320;51.608;7.952;2024-03-06T07:08:36;101431.78;;;7.26;93.37
85000;BME280;75320;51.608;7.952;2024-03-06T07:11:02;101438.53;;;7.10;94.16
85000;BME280;75320;51.608;7.952;2024-03-06T07:13:27;101439.44;;;7.58;96.18
85000;BME280;75320;51.608;7.952;2024-03-06T07:15:53;101445.78;;;7.94;94.68
85000;BME280;75320;51.608;7.952;2024-03-06T07:18:18;101444.94;;;8.31;91.21
85000;BME280;75320;51.608;7.952;2024-03-06T07:20:43;101430.13;;;8.77;88.07
85000;BME280;75320;51.608;7.952;2024-03-06T07:23:09;101439.13;;;9.28;85.51
85000;BME280;75320;51.608;7.952;2024-03-06T07:25:34;101445.84;;;9.58;86.66
85000;BME280;75320;51.608;7.952;2024-03-06T07:27:59;101448.59;;;10.27;88.88
85000;BME280;75320;51.608;7.952;2024-03-06T07:30:25;101451.41;;;10.26;84.80
85000;BME280;75320;51.608;7.952;2024-03-06T07:32:50;101453.38;;;10.24;80.51
85000;BME280;75320;51.608;7.952;2024-03-06T07:35:15;101455.28;;;10.65;76.91
85000;BME280;75320;51.608;7.952;2024-03-06T07:37:42;101460.84;;;10.62;78.22
85000;BME280;75320;51.608;7.952;2024-03-06T07:40:10;101454.84;;;10.77;78.99
85000;BME280;75320;51.608;7.952;2024-03-06T07:42:35;101466.09;;;10.88;78.44
85000;BME280;75320;51.608;7.952;2024-03-06T07:45:01;101440.03;;;10.51;77.83
85000;BME280;75320;51.608;7.952;2024-03-06T07:47:26;101472.22;;;10.11;78.96
85000;BME280;75320;51.608;7.952;2024-03-06T07:49:52;101473.09;;;9.84;80.51
85000;BME280;75320;51.608;7.952;2024-03-06T07:52:17;101479.31;;;9.48;81.53
85000;BME280;75320;51.608;7.952;2024-03-06T07:54:42;101483.44;;;9.33;82.84
85000;BME280;75320;51.608;7.952;2024-03-06T07:57:08;101494.91;;;9.05;84.41
85000;BME280;75320;51.608;7.952;2024-03-06T07:59:36;101490.50;;;9.05;84.06
85000;BME280;75320;51.608;7.952;2024-03-06T08:02:01;101487.13;;;9.58;82.89
85000;BME280;75320;51.608;7.952;2024-03-06T08:04:26;101496.19;;;9.55;82.03
85000;BME280;75320;51.608;7.952;2024-03-06T08:06:52;101495.59;;;9.61;81.29
85000;BME280;75320;51.608;7.952;2024-03-06T08:09:20;101499.09;;;8.98;83.93
85000;BME280;75320;51.608;7.952;2024-03-06T08:11:47;101501.44;;;8.64;84.57
85000;BME280;75320;51.608;7.952;2024-03-06T08:14:13;101507.38;;;8.66;84.92
85000;BME280;75320;51.608;7.952;2024-03-06T08:16:40;101510.06;;;8.28;85.60
85000;BME280;75320;51.608;7.952;2024-03-06T08:19:05;101510.31;;;8.54;85.69
85000;BME280;75320;51.608;7.952;2024-03-06T08:21:30;101519.31;;;8.61;85.49
85000;BME280;75320;51.608;7.952;2024-03-06T08:23:56;101517.34;;;8.63;84.89
85000;BME280;75320;51.608;7.952;2024-03-06T08:26:22;101514.19;;;8.96;85.24
85000;BME280;75320;51.608;7.952;2024-03-06T08:28:48;101518.94;;;8.83;84.60
85000;BME280;75320;51.608;7.952;2024-03-06T08:31:14;101530.84;;;8.87;82.87
85000;BME280;75320;51.608;7.952;2024-03-06T08:33:39;101526.44;;;8.78;83.13
85000;BME280;75320;51.608;7.952;2024-03-06T08:36:05;101530.22;;;9.12;82.54
85000;BME280;75320;51.608;7.952;2024-03-06T08:38:30;101513.94;;;8.89;81.39
85000;BME280;75320;51.608;7.952;2024-03-06T08:40:56;101538.03;;;8.94;83.06
85000;BME280;75320;51.608;7.952;2024-03-06T08:43:21;101539.53;;;8.97;81.85
85000;BME280;75320;51.608;7.952;2024-03-06T08:45:46;101534.03;;;9.17;82.05
85000;BME280;75320;51.608;7.952;2024-03-06T08:48:11;101540.31;;;9.16;80.91
85000;BME280;75320;51.608;7.952;2024-03-06T08:50:38;101547.09;;;9.09;81.99
85000;BME280;75320;51.608;7.952;2024-03-06T08:53:03;101544.22;;;9.03;81.16
85000;BME280;75320;51.608;7.952;2024-03-06T08:55:30;101544.53;;;9.27;80.15
85000;BME280;75320;51.608;7.952;2024-03-06T08:57:55;101552.63;;;9.16;80.36
85000;BME280;75320;51.608;7.952;2024-03-06T09:00:20;101544.72;;;9.43;79.88
85000;BME280;75320;51.608;7.952;2024-03-06T09:02:46;101539.41;;;9.97;78.47
85000;BME280;75320;51.608;7.952;2024-03-06T09:05:11;101547.69;;;10.02;77.91
85000;BME280;75320;51.608;7.952;2024-03-06T09:07:38;101544.69;;;9.97;78.62
85000;BME280;75320;51.608;7.952;2024-03-06T09:10:07;101549.84;;;9.72;79.42
85000;BME280;75320;51.608;7.952;2024-03-06T09:12:32;101542.47;;;9.75;79.61
85000;BME280;75320;51.608;7.952;2024-03-06T09:14:58;101543.59;;;9.73;80.50
85000;BME280;75320;51.608;7.952;2024-03-06T09:17:25;101549.28;;;9.51;80.00
85000;BME280;75320;51.608;7.952;2024-03-06T09:19:50;101547.22;;;9.45;79.41
85000;BME280;75320;51.608;7.952;2024-03-06T09:22:16;101550.75;;;9.36;79.93
85000;BME280;75320;51.608;7.952;2024-03-06T09:24:42;101553.03;;;9.48;80.16
85000;BME280;75320;51.608;7.952;2024-03-06T09:27:08;101554.28;;;9.44;80.41
85000;BME280;75320;51.608;7.952;2024-03-06T09:29:34;101533.16;;;9.81;79.52
85000;BME280;75320;51.608;7.952;2024-03-06T09:31:59;101542.53;;;9.66;80.10
85000;BME280;75320;51.608;7.952;2024-03-06T09:34:26;101562.31;;;9.70;81.30
85000;BME280;75320;51.608;7.952;2024-03-06T09:36:51;101555.28;;;10.05;79.41
85000;BME280;75320;51.608;7.952;2024-03-06T09:39:19;101574.66;;;10.49;76.01
85000;BME280;75320;51.608;7.952;2024-03-06T09:41:52;101576.22;;;10.60;76.45
85000;BME280;75320;51.608;7.952;2024-03-06T09:44:18;101580.78;;;10.15;77.73
85000;BME280;75320;51.608;7.952;2024-03-06T09:46:46;101580.50;;;10.08;79.03
85000;BME280;75320;51.608;7.952;2024-03-06T09:49:15;101555.63;;;9.75;76.96
85000;BME280;75320;51.608;7.952;2024-03-06T09:51:45;101583.56;;;9.86;78.93
85000;BME280;75320;51.608;7.952;2024-03-06T09:54:12;101578.28;;;9.86;77.73
85000;BME280;75320;51.608;7.952;2024-03-06T09:56:46;101585.88;;;9.71;79.42
85000;BME280;75320;51.608;7.952;2024-03-06T09:59:12;101574.75;;;9.50;78.03
85000;BME280;75320;51.608;7.952;2024-03-06T10:01:49;101586.81;;;9.53;78.69
85000;BME280;75320;51.608;7.952;2024-03-06T10:04:28;101587.34;;;9.56;78.31
85000;BME280;75320;51.608;7.952;2024-03-06T10:06:58;101599.28;;;9.51;79.11
85000;BME280;75320;51.608;7.952;2024-03-06T10:09:25;101599.63;;;9.38;78.91
85000;BME280;75320;51.608;7.952;2024-03-06T10:11:50;101604.06;;;9.38;79.10
85000;BME280;75320;51.608;7.952;2024-03-06T10:14:19;101604.50;;;9.23;79.99
85000;BME280;75320;51.608;7.952;2024-03-06T10:19:23;101604.59;;;8.95;80.37
85000;BME280;75320;51.608;7.952;2024-03-06T10:21:50;101601.13;;;8.94;80.33
85000;BME280;75320;51.608;7.952;2024-03-06T10:26:56;101609.44;;;8.99;81.35
85000;BME280;75320;51.608;7.952;2024-03-06T10:29:23;101611.94;;;9.01;81.82
85000;BME280;75320;51.608;7.952;2024-03-06T10:34:16;101605.34;;;9.24;81.79
85000;BME280;75320;51.608;7.952;2024-03-06T10:36:42;101614.91;;;9.62;80.50
85000;BME280;75320;51.608;7.952;2024-03-06T10:39:11;101610.50;;;9.80;79.37
85000;BME280;75320;51.608;7.952;2024-03-06T10:41:38;101581.91;;;10.30;77.41
85000;BME280;75320;51.608;7.952;2024-03-06T10:44:08;101612.34;;;10.85;75.95
85000;BME280;75320;51.608;7.952;2024-03-06T10:46:41;101612.41;;;10.32;74.65
85000;BME280;75320;51.608;7.952;2024-03-06T10:49:08;101615.88;;;10.33;74.91
85000;BME280;75320;51.608;7.952;2024-03-06T10:51:38;101617.91;;;10.56;74.33
85000;BME280;75320;51.608;7.952;2024-03-06T10:54:07;101614.03;;;11.12;74.57
85000;BME280;75320;51.608;7.952;2024-03-06T10:56:34;101610.03;;;11.67;70.95
85000;BME280;75320;51.608;7.952;2024-03-06T10:58:59;101616.41;;;11.23;71.00
85000;BME280;75320;51.608;7.952;2024-03-06T11:01:25;101608.22;;;11.08;71.44
85000;BME280;75320;51.608;7.952;2024-03-06T11:03:50;101611.91;;;10.90;71.00
85000;BME280;75320;51.608;7.952;2024-03-06T11:06:17;101605.06;;;11.05;73.45
85000;BME280;75320;51.608;7.952;2024-03-06T11:08:43;101611.34;;;10.60;72.51
85000;BME280;75320;51.608;7.952;2024-03-06T11:11:22;101608.53;;;11.31;72.15
85000;BME280;75320;51.608;7.952;2024-03-06T11:13:48;101614.91;;;11.20;70.61
85000;BME280;75320;51.608;7.952;2024-03-06T11:16:14;101612.25;;;11.20;71.02
85000;BME280;75320;51.608;7.952;2024-03-06T11:23:30;101621.75;;;10.62;71.62
85000;BME280;75320;51.608;7.952;2024-03-06T11:25:56;101616.00;;;11.10;70.91
85000;BME280;75320;51.608;7.952;2024-03-06T11:33:45;101628.97;;;11.03;70.21
85000;BME280;75320;51.608;7.952;2024-03-06T11:36:24;101632.41;;;10.78;70.73
85000;BME280;75320;51.608;7.952;2024-03-06T11:39:03;101636.41;;;10.82;71.31
85000;BME280;75320;51.608;7.952;2024-03-06T11:41:48;101635.38;;;10.75;69.74
85000;BME280;75320;51.608;7.952;2024-03-06T11:44:18;101637.16;;;10.92;70.01
85000;BME280;75320;51.608;7.952;2024-03-06T11:49:25;101643.06;;;11.12;71.76
85000;BME280;75320;51.608;7.952;2024-03-06T11:52:12;101641.13;;;10.96;70.46
85000;BME280;75320;51.608;7.952;2024-03-06T11:54:37;101641.59;;;11.17;71.68
85000;BME280;75320;51.608;7.952;2024-03-06T11:57:04;101633.44;;;11.28;69.82
85000;BME280;75320;51.608;7.952;2024-03-06T11:59:31;101637.09;;;10.66;70.95
85000;BME280;75320;51.608;7.952;2024-03-06T12:01:58;101627.91;;;10.70;71.00
85000;BME280;75320;51.608;7.952;2024-03-06T12:04:23;101634.13;;;10.87;70.59
85000;BME280;75320;51.608;7.952;2024-03-06T12:06:50;101642.69;;;11.07;69.43
85000;BME280;75320;51.608;7.952;2024-03-06T12:09:15;101645.75;;;10.94;69.97
85000;BME280;75320;51.608;7.952;2024-03-06T12:11:41;101645.31;;;11.07;69.28
85000;BME280;75320;51.608;7.952;2024-03-06T12:14:20;101640.97;;;11.23;69.51
85000;BME280;75320;51.608;7.952;2024-03-06T12:19:25;101630.72;;;11.46;67.20
85000;BME280;75320;51.608;7.952;2024-03-06T12:21:50;101637.19;;;11.26;68.17
85000;BME280;75320;51.608;7.952;2024-03-06T12:24:16;101637.78;;;11.37;68.55
85000;BME280;75320;51.608;7.952;2024-03-06T12:26:45;101635.19;;;11.53;66.76
85000;BME280;75320;51.608;7.952;2024-03-06T12:29:17;101645.69;;;11.37;63.27
85000;BME280;75320;51.608;7.952;2024-03-06T12:31:42;101638.28;;;11.75;63.18
85000;BME280;75320;51.608;7.952;2024-03-06T12:34:08;101639.13;;;11.75;64.85
85000;BME280;75320;51.608;7.952;2024-03-06T12:36:39;101626.81;;;11.58;63.99
85000;BME280;75320;51.608;7.952;2024-03-06T12:39:05;101639.22;;;11.99;63.79
85000;BME280;75320;51.608;7.952;2024-03-06T12:41:39;101617.59;;;12.04;62.32
85000;BME280;75320;51.608;7.952;2024-03-06T12:44:04;101630.91;;;11.86;61.59
85000;BME280;75320;51.608;7.952;2024-03-06T12:46:31;101641.78;;;11.75;63.73
85000;BME280;75320;51.608;7.952;2024-03-06T12:48:58;101638.34;;;11.83;61.92
85000;BME280;75320;51.608;7.952;2024-03-06T12:51:24;101639.78;;;11.69;62.13
85000;BME280;75320;51.608;7.952;2024-03-06T12:53:50;101643.63;;;11.83;62.89
85000;BME280;75320;51.608;7.952;2024-03-06T12:56:16;101650.91;;;11.81;66.75
85000;BME280;75320;51.608;7.952;2024-03-06T12:58:42;101644.75;;;11.46;68.29
85000;BME280;75320;51.608;7.952;2024-03-06T13:01:07;101636.97;;;11.45;68.56
85000;BME280;75320;51.608;7.952;2024-03-06T13:03:32;101652.13;;;11.09;69.38
85000;BME280;75320;51.608;7.952;2024-03-06T13:05:59;101642.94;;;10.96;69.32
85000;BME280;75320;51.608;7.952;2024-03-06T13:08:25;101651.41;;;10.82;71.08
85000;BME280;75320;51.608;7.952;2024-03-06T13:10:50;101648.72;;;10.73;71.96
85000;BME280;75320;51.608;7.952;2024-03-06T13:13:15;101645.53;;;10.70;71.81
85000;BME280;75320;51.608;7.952;2024-03-06T13:15:42;101643.66;;;10.80;71.05
85000;BME280;75320;51.608;7.952;2024-03-06T13:18:08;101646.44;;;10.61;71.60